Terminal Aerodrome Forecast
Issued by NWS

Home | Current Version | Previous Version | Graphics & Text | Print | Product List | Glossary On
Versions: 1 2 3 4 5 6 7 8 9 10 11 12 13 14 15 16 17 18
000
FTUS43 KICT 011432 AAD
TAFHUT
TAF AMD
KHUT 011432Z 0115/0212 31013G20KT P6SM SCT009 OVC013
      TEMPO 0115/0116 OVC009
     FM011600 34015G23KT P6SM BKN025 OVC150
     FM011900 34013G22KT P6SM SCT035 OVC150
     FM020000 36011KT P6SM OVC035
     FM020700 36007KT P6SM VCSH SCT015 OVC025=

USA.gov is the U.S. government's official web portal to all federal, state and local government web resources and services.